Time;durP1;ratioP1;P1;durP2;ratioP2;P2;SDS_P1;SDS_P2;PMS_P1;PMS_P2;Temp;Humidity;BMP_temperature;BMP_pressure;BME280_temperature;BME280_humidity;BME280_pressure;Samples;Min_cycle;Max_cycle;Signal;HPM_P1;HPM_P2
2022/01/29 00:00:57;;;;;;;116.63;68.97;;;5.70;83.40;;;;;;5031342;28;20088;-84
2022/01/29 00:03:23;;;;;;;116.43;70.40;;;5.70;83.50;;;;;;5012443;28;20542;-83
2022/01/29 00:05:49;;;;;;;108.15;62.83;;;5.70;83.50;;;;;;5027474;28;20116;-83
2022/01/29 00:08:16;;;;;;;122.05;69.15;;;5.60;83.80;;;;;;5024358;28;20048;-84
2022/01/29 00:10:43;;;;;;;108.55;62.22;;;5.60;83.80;;;;;;5030526;28;20091;-85
2022/01/29 00:13:09;;;;;;;92.18;53.20;;;5.60;83.90;;;;;;5007868;28;20124;-85
2022/01/29 00:15:35;;;;;;;91.35;53.33;;;5.70;83.90;;;;;;5032548;28;20120;-84
2022/01/29 00:18:01;;;;;;;114.68;62.50;;;5.90;83.20;;;;;;5033437;28;20033;-84
2022/01/29 00:20:27;;;;;;;86.32;51.03;;;6.00;82.60;;;;;;5032841;28;20064;-84
2022/01/29 00:22:52;;;;;;;118.78;71.15;;;6.10;82.40;;;;;;5030307;28;20038;-83
2022/01/29 00:25:18;;;;;;;94.30;53.00;;;6.00;82.30;;;;;;5020980;28;20107;-83
2022/01/29 00:27:44;;;;;;;103.90;61.58;;;5.90;82.50;;;;;;5032733;28;20033;-83
2022/01/29 00:30:14;;;;;;;100.13;58.67;;;6.00;82.20;;;;;;5030960;28;20125;-84
2022/01/29 00:32:40;;;;;;;85.72;49.97;;;5.90;82.80;;;;;;5012941;28;20046;-83
2022/01/29 00:35:06;;;;;;;100.25;57.88;;;6.00;82.40;;;;;;5031313;28;20033;-83
2022/01/29 00:37:32;;;;;;;85.88;47.88;;;5.90;82.70;;;;;;5032466;28;20113;-83
2022/01/29 00:39:58;;;;;;;82.50;46.75;;;6.00;82.50;;;;;;5032924;28;20036;-84
2022/01/29 00:42:24;;;;;;;80.88;47.65;;;6.10;81.80;;;;;;5013936;28;20033;-84
2022/01/29 00:44:50;;;;;;;93.90;53.92;;;6.20;81.40;;;;;;5032299;28;20037;-83
2022/01/29 00:47:16;;;;;;;97.97;56.08;;;6.20;81.30;;;;;;5014068;28;20049;-83
2022/01/29 00:49:43;;;;;;;116.80;67.00;;;6.10;81.60;;;;;;5004700;28;20030;-83
2022/01/29 00:52:08;;;;;;;122.30;71.00;;;5.90;82.00;;;;;;5029917;28;20041;-83
2022/01/29 00:54:34;;;;;;;92.40;55.15;;;5.80;82.70;;;;;;5029967;28;20405;-83
2022/01/29 00:57:00;;;;;;;79.43;46.05;;;5.80;83.10;;;;;;5028628;28;20037;-83
2022/01/29 00:59:26;;;;;;;84.65;49.53;;;5.90;82.70;;;;;;5032331;28;20042;-83
2022/01/29 01:01:52;;;;;;;106.07;59.47;;;5.90;82.40;;;;;;5031872;28;20116;-83
2022/01/29 01:04:18;;;;;;;85.72;49.53;;;5.80;82.70;;;;;;5029791;28;20034;-84
2022/01/29 01:06:43;;;;;;;79.72;45.95;;;5.90;82.90;;;;;;5025937;28;20551;-84
2022/01/29 01:09:09;;;;;;;73.70;42.50;;;6.00;82.10;;;;;;5032100;28;20056;-85
2022/01/29 01:11:35;;;;;;;85.30;48.17;;;6.10;81.60;;;;;;5032191;28;20048;-85
2022/01/29 01:14:01;;;;;;;86.95;48.10;;;6.20;81.20;;;;;;5032280;28;20478;-84
2022/01/29 01:16:27;;;;;;;80.88;47.25;;;6.20;81.00;;;;;;5033325;28;20049;-85
2022/01/29 01:18:52;;;;;;;79.38;45.35;;;6.30;80.90;;;;;;5039088;28;20374;-86
2022/01/29 01:21:18;;;;;;;84.35;49.17;;;6.30;81.10;;;;;;5038600;28;20045;-85
2022/01/29 01:23:44;;;;;;;76.13;44.67;;;6.30;80.70;;;;;;5015458;28;20409;-85
2022/01/29 01:26:09;;;;;;;77.88;45.90;;;6.30;80.50;;;;;;5037171;28;20037;-85
2022/01/29 01:28:35;;;;;;;78.53;45.55;;;6.40;80.40;;;;;;5038847;28;20121;-85
2022/01/29 01:31:01;;;;;;;75.20;43.92;;;6.40;80.10;;;;;;5038691;28;20157;-84
2022/01/29 01:33:27;;;;;;;76.25;44.03;;;6.40;80.20;;;;;;5036153;28;20030;-85
2022/01/29 01:35:57;;;;;;;77.80;47.03;;;6.40;80.10;;;;;;5021204;28;20033;-85
2022/01/29 01:38:39;;;;;;;88.15;49.50;;;6.40;80.00;;;;;;5038849;28;20460;-85
2022/01/29 01:41:09;;;;;;;74.15;43.83;;;6.30;80.50;;;;;;5038544;28;20493;-84
2022/01/29 01:43:34;;;;;;;91.20;52.58;;;6.30;80.60;;;;;;5038869;28;20025;-84
2022/01/29 01:46:00;;;;;;;80.97;47.70;;;6.30;80.50;;;;;;5038907;28;20041;-84
2022/01/29 01:48:26;;;;;;;80.40;47.97;;;6.30;80.80;;;;;;5021097;28;20033;-85
2022/01/29 01:50:52;;;;;;;84.43;49.83;;;6.30;81.00;;;;;;5033042;28;20038;-84
2022/01/29 01:53:18;;;;;;;112.45;65.72;;;6.20;81.70;;;;;;5019462;28;20036;-85
2022/01/29 01:55:43;;;;;;;87.30;50.80;;;6.10;82.40;;;;;;5038819;28;20470;-85
2022/01/29 01:58:09;;;;;;;101.63;61.72;;;6.00;82.50;;;;;;5005377;28;20594;-85
2022/01/29 02:00:35;;;;;;;99.47;56.88;;;5.90;82.50;;;;;;5027666;28;20045;-84
2022/01/29 02:03:01;;;;;;;99.75;57.40;;;5.80;82.80;;;;;;5036746;28;20101;-84
2022/01/29 02:05:27;;;;;;;101.47;57.97;;;5.90;82.60;;;;;;5037098;28;20048;-84
2022/01/29 02:07:52;;;;;;;80.65;48.05;;;5.80;82.80;;;;;;5020118;28;20064;-83
2022/01/29 02:10:19;;;;;;;88.50;52.47;;;5.90;82.70;;;;;;5030387;28;20038;-83
2022/01/29 02:12:47;;;;;;;93.13;52.25;;;6.00;82.10;;;;;;5038623;28;20037;-83
2022/01/29 02:15:14;;;;;;;104.72;59.65;;;6.00;82.20;;;;;;5013294;28;20145;-84
2022/01/29 02:17:40;;;;;;;89.38;52.58;;;5.90;82.40;;;;;;5001443;28;20034;-84
2022/01/29 02:20:06;;;;;;;83.68;46.72;;;5.80;82.60;;;;;;5024598;28;20040;-84
2022/01/29 02:22:32;;;;;;;76.05;46.40;;;5.90;82.40;;;;;;5038663;28;20041;-84
2022/01/29 02:24:58;;;;;;;76.70;44.38;;;5.90;82.50;;;;;;5037843;28;20068;-84
2022/01/29 02:27:24;;;;;;;90.80;48.97;;;6.00;81.80;;;;;;5038280;28;20226;-86
2022/01/29 02:29:50;;;;;;;85.05;48.40;;;6.00;81.30;;;;;;5017162;28;20451;-83
2022/01/29 02:32:16;;;;;;;86.82;48.85;;;5.90;81.80;;;;;;5033979;28;20091;-83
2022/01/29 02:34:43;;;;;;;83.88;48.58;;;6.00;81.60;;;;;;5011987;28;20034;-84
2022/01/29 02:37:10;;;;;;;78.97;46.45;;;6.00;81.60;;;;;;5035258;28;20009;-83
2022/01/29 02:39:35;;;;;;;78.30;46.83;;;6.00;81.50;;;;;;5034345;28;20049;-83
2022/01/29 02:42:02;;;;;;;84.97;46.05;;;6.00;81.30;;;;;;5034238;28;20046;-82
2022/01/29 02:44:27;;;;;;;76.40;45.33;;;6.10;81.30;;;;;;5016405;28;20045;-84
2022/01/29 02:46:56;;;;;;;73.47;43.50;;;6.00;81.10;;;;;;5017003;28;20045;-82
2022/01/29 02:49:24;;;;;;;79.88;45.13;;;6.00;81.30;;;;;;5034351;28;20116;-82
2022/01/29 02:51:53;;;;;;;85.88;50.70;;;6.00;81.20;;;;;;5016132;28;20095;-81
2022/01/29 02:54:19;;;;;;;81.40;48.72;;;6.00;81.00;;;;;;5034538;28;20025;-81
2022/01/29 02:56:45;;;;;;;77.50;46.05;;;6.00;81.00;;;;;;5033992;28;20052;-82
2022/01/29 02:59:12;;;;;;;73.65;41.70;;;6.00;81.40;;;;;;5012849;28;20122;-81
2022/01/29 03:01:38;;;;;;;81.93;47.13;;;6.00;81.30;;;;;;5033961;28;20049;-82
2022/01/29 03:04:04;;;;;;;83.38;48.67;;;6.00;81.30;;;;;;5034473;28;20109;-83
2022/01/29 03:06:30;;;;;;;82.70;47.03;;;5.90;81.00;;;;;;5016698;28;20132;-82
2022/01/29 03:08:57;;;;;;;86.20;49.05;;;5.90;81.40;;;;;;5034765;28;20080;-83
2022/01/29 03:11:23;;;;;;;70.65;42.05;;;5.80;81.60;;;;;;5034249;28;20103;-83
2022/01/29 03:13:49;;;;;;;74.00;43.63;;;5.80;81.80;;;;;;5016441;28;20030;-83
2022/01/29 03:16:15;;;;;;;73.75;42.28;;;5.80;81.70;;;;;;5015678;28;20045;-82
2022/01/29 03:18:45;;;;;;;67.78;41.13;;;5.90;81.80;;;;;;5033712;28;20041;-81
2022/01/29 03:21:12;;;;;;;74.40;43.95;;;5.90;81.30;;;;;;5033472;28;20382;-81
2022/01/29 03:23:38;;;;;;;76.78;44.40;;;5.90;80.90;;;;;;5033663;28;20125;-82
2022/01/29 03:26:04;;;;;;;73.88;43.53;;;5.90;81.10;;;;;;5015660;28;20128;-81
2022/01/29 03:28:30;;;;;;;73.65;42.70;;;5.90;81.10;;;;;;5016421;28;20065;-83
2022/01/29 03:30:56;;;;;;;81.70;47.88;;;5.90;81.10;;;;;;5027768;28;20030;-84
2022/01/29 03:33:22;;;;;;;69.53;40.33;;;5.90;80.90;;;;;;5025427;28;21993;-84
2022/01/29 03:35:49;;;;;;;70.55;40.63;;;5.90;81.30;;;;;;5034218;28;20068;-84
2022/01/29 03:38:15;;;;;;;91.80;49.40;;;6.00;81.30;;;;;;5034047;28;20041;-84
2022/01/29 03:40:41;;;;;;;75.28;45.05;;;5.90;81.30;;;;;;5032618;28;20041;-83
2022/01/29 03:43:11;;;;;;;68.40;40.28;;;5.80;81.70;;;;;;5033778;28;20112;-84
2022/01/29 03:45:37;;;;;;;77.82;45.55;;;5.80;82.00;;;;;;5033635;28;20037;-82
2022/01/29 03:48:03;;;;;;;79.18;46.75;;;5.80;82.00;;;;;;5033661;28;20727;-84
2022/01/29 03:50:34;;;;;;;75.38;44.42;;;5.80;82.00;;;;;;5033702;28;20041;-84
2022/01/29 03:52:59;;;;;;;70.15;39.92;;;5.80;82.10;;;;;;5033841;28;20103;-84
2022/01/29 03:55:25;;;;;;;70.95;41.10;;;5.80;82.20;;;;;;5033214;28;20467;-84
2022/01/29 03:57:51;;;;;;;79.00;46.97;;;5.90;82.10;;;;;;5032784;28;20038;-82
2022/01/29 04:00:17;;;;;;;68.00;41.65;;;5.90;81.80;;;;;;5031904;28;20389;-83
2022/01/29 04:02:43;;;;;;;72.60;42.20;;;5.90;82.00;;;;;;5015227;28;20373;-82
2022/01/29 04:05:09;;;;;;;73.50;42.45;;;5.90;81.80;;;;;;5015486;28;20046;-81
2022/01/29 04:07:35;;;;;;;72.88;41.55;;;5.90;81.80;;;;;;5032624;28;20497;-83
2022/01/29 04:10:01;;;;;;;72.30;40.97;;;5.90;81.90;;;;;;5032883;28;20119;-82
2022/01/29 04:12:31;;;;;;;69.60;41.40;;;5.90;81.90;;;;;;5033470;28;20029;-83
2022/01/29 04:14:58;;;;;;;65.43;39.35;;;6.00;81.70;;;;;;5033321;28;20029;-83
2022/01/29 04:17:24;;;;;;;73.53;44.17;;;6.00;81.60;;;;;;5033388;28;20042;-83
2022/01/29 04:19:50;;;;;;;67.40;42.30;;;5.90;81.30;;;;;;5032627;28;20048;-82
2022/01/29 04:22:15;;;;;;;70.07;40.78;;;5.90;81.70;;;;;;5033124;28;20063;-82
2022/01/29 04:24:41;;;;;;;74.20;40.70;;;5.90;81.80;;;;;;5032567;28;20093;-82
2022/01/29 04:27:17;;;;;;;69.00;40.88;;;5.90;81.80;;;;;;5024624;28;20046;-82
2022/01/29 04:29:54;;;;;;;75.45;42.67;;;6.00;81.80;;;;;;5032362;28;20045;-82
2022/01/29 04:32:27;;;;;;;75.70;44.72;;;6.00;81.60;;;;;;5032778;28;20120;-82
2022/01/29 04:34:53;;;;;;;74.45;45.55;;;5.90;81.50;;;;;;5030652;28;20029;-82
2022/01/29 04:37:19;;;;;;;72.10;43.28;;;5.90;81.30;;;;;;5031516;28;20108;-82
2022/01/29 04:39:45;;;;;;;65.43;39.33;;;5.90;81.40;;;;;;5032933;28;20486;-84
2022/01/29 04:42:10;;;;;;;72.38;41.42;;;6.00;80.90;;;;;;5032858;28;20484;-84
2022/01/29 04:44:36;;;;;;;80.85;46.28;;;6.00;80.00;;;;;;5014354;28;20043;-84
2022/01/29 04:47:02;;;;;;;87.10;48.75;;;6.10;80.00;;;;;;5032663;28;20117;-85
2022/01/29 04:49:27;;;;;;;71.75;43.50;;;6.00;79.60;;;;;;5032628;28;20064;-83
2022/01/29 04:51:53;;;;;;;75.50;43.72;;;6.00;79.70;;;;;;5014527;28;20073;-84
2022/01/29 04:54:19;;;;;;;88.50;48.67;;;6.00;79.40;;;;;;5031799;28;20037;-84
2022/01/29 04:56:44;;;;;;;75.03;43.65;;;6.00;79.00;;;;;;5033069;28;20045;-84
2022/01/29 04:59:10;;;;;;;73.72;41.72;;;6.00;79.20;;;;;;5028247;28;20048;-84
2022/01/29 05:01:36;;;;;;;71.18;42.42;;;6.00;78.80;;;;;;5032642;28;20115;-86
2022/01/29 05:04:01;;;;;;;71.78;40.10;;;6.00;78.40;;;;;;5014576;28;20048;-84
2022/01/29 05:06:28;;;;;;;70.20;40.25;;;6.00;78.60;;;;;;5032299;28;20124;-83
2022/01/29 05:08:54;;;;;;;74.15;41.60;;;6.00;78.20;;;;;;5032014;28;20041;-83
2022/01/29 05:11:19;;;;;;;74.10;42.40;;;6.00;77.30;;;;;;5032098;28;20034;-82
2022/01/29 05:13:45;;;;;;;73.47;44.10;;;5.90;77.10;;;;;;5031241;28;20041;-84
2022/01/29 05:27:08;;;;;;;85.88;51.35;;;5.50;80.50;;;;;;5031002;28;20101;-85
2022/01/29 05:29:36;;;;;;;73.57;42.40;;;5.40;81.30;;;;;;5014387;28;20069;-86
2022/01/29 05:32:07;;;;;;;59.42;37.35;;;5.40;81.30;;;;;;5032065;28;20044;-86
2022/01/29 05:34:34;;;;;;;65.60;39.72;;;5.50;80.90;;;;;;5032471;28;20037;-85
2022/01/29 05:37:02;;;;;;;60.97;37.80;;;5.60;80.50;;;;;;5018263;28;20041;-85
2022/01/29 05:39:27;;;;;;;66.40;39.58;;;5.70;80.10;;;;;;5031527;28;20065;-85
2022/01/29 05:41:54;;;;;;;73.68;44.65;;;5.80;79.80;;;;;;5014164;28;20089;-86
2022/01/29 05:44:20;;;;;;;82.65;50.20;;;5.70;79.70;;;;;;5014614;28;20454;-87
2022/01/29 05:46:46;;;;;;;86.25;50.17;;;5.60;80.20;;;;;;5031452;28;20104;-87
2022/01/29 05:49:11;;;;;;;94.55;54.92;;;5.40;81.30;;;;;;5014391;28;20424;-85
2022/01/29 05:51:37;;;;;;;78.03;45.10;;;5.30;81.20;;;;;;5032291;28;20530;-87
2022/01/29 05:54:03;;;;;;;66.15;38.63;;;5.20;81.50;;;;;;5014556;28;20040;-89
2022/01/29 05:59:12;;;;;;;84.75;49.28;;;5.30;80.80;;;;;;5019878;28;20419;-76
2022/01/29 06:01:37;;;;;;;75.05;43.90;;;5.10;81.60;;;;;;5011113;28;20048;-77
2022/01/29 06:04:03;;;;;;;76.35;46.25;;;5.10;81.60;;;;;;5031434;28;20451;-77
2022/01/29 06:06:29;;;;;;;69.60;41.28;;;5.10;81.30;;;;;;5033512;28;20382;-76
2022/01/29 06:08:54;;;;;;;78.07;45.88;;;5.20;81.40;;;;;;5032244;28;20052;-77
2022/01/29 06:11:21;;;;;;;83.95;49.15;;;5.10;81.30;;;;;;5032944;28;20120;-77
2022/01/29 06:13:46;;;;;;;84.78;50.53;;;5.20;82.00;;;;;;5031756;28;20064;-78
2022/01/29 06:16:12;;;;;;;72.05;42.60;;;5.10;82.00;;;;;;5031779;28;20065;-78
2022/01/29 06:18:38;;;;;;;68.13;40.30;;;5.20;82.00;;;;;;5028149;28;20033;-78
2022/01/29 06:21:04;;;;;;;62.15;36.88;;;5.20;81.40;;;;;;5034022;28;20485;-77
2022/01/29 06:23:33;;;;;;;74.65;42.67;;;5.30;81.10;;;;;;5034120;28;20068;-77
2022/01/29 06:26:04;;;;;;;79.40;45.25;;;5.30;80.60;;;;;;5033281;28;20046;-77
2022/01/29 06:28:30;;;;;;;79.85;45.90;;;5.20;80.70;;;;;;5015975;28;20037;-79
2022/01/29 06:30:56;;;;;;;75.43;42.50;;;5.20;81.20;;;;;;5032914;28;20444;-77
2022/01/29 06:33:22;;;;;;;76.53;44.60;;;5.20;81.50;;;;;;5032036;28;20095;-78
2022/01/29 06:35:48;;;;;;;68.97;40.58;;;5.10;81.40;;;;;;5013951;28;20151;-77
2022/01/29 06:38:15;;;;;;;63.72;38.45;;;5.20;80.90;;;;;;5014898;28;20041;-77
2022/01/29 06:40:42;;;;;;;70.38;42.38;;;5.30;80.60;;;;;;5032871;28;20068;-78
2022/01/29 06:43:36;;;;;;;73.25;41.83;;;5.30;80.70;;;;;;5030577;28;20397;-77
2022/01/29 06:46:07;;;;;;;60.65;37.00;;;5.30;80.50;;;;;;5019245;28;20497;-77
2022/01/29 06:48:33;;;;;;;75.45;42.95;;;5.30;80.50;;;;;;5030191;28;20077;-79
2022/01/29 06:50:58;;;;;;;79.00;46.00;;;5.30;80.20;;;;;;5025955;28;20061;-78
2022/01/29 06:53:24;;;;;;;76.15;46.10;;;5.20;80.40;;;;;;5033033;28;20030;-78
2022/01/29 06:55:49;;;;;;;95.60;55.22;;;5.10;80.60;;;;;;5031524;28;20029;-76
2022/01/29 06:58:15;;;;;;;101.47;55.63;;;4.90;80.70;;;;;;5031407;28;20050;-79
2022/01/29 07:00:41;;;;;;;85.50;50.85;;;4.80;80.90;;;;;;5032950;28;20449;-79
2022/01/29 07:03:07;;;;;;;77.15;45.60;;;4.80;81.10;;;;;;5032765;28;20547;-79
2022/01/29 07:05:32;;;;;;;80.97;48.92;;;4.80;81.40;;;;;;5029232;28;20747;-80
2022/01/29 07:07:58;;;;;;;95.03;55.75;;;4.80;81.30;;;;;;5027375;28;20061;-77
2022/01/29 07:10:25;;;;;;;92.80;52.03;;;4.70;81.30;;;;;;5026803;28;20039;-79
2022/01/29 07:12:51;;;;;;;82.03;48.28;;;4.70;81.90;;;;;;5027696;28;20025;-76
2022/01/29 07:15:17;;;;;;;80.65;46.65;;;4.60;81.70;;;;;;5025336;28;20037;-77
2022/01/29 07:17:42;;;;;;;85.50;49.63;;;4.70;81.60;;;;;;5029116;28;20033;-79
2022/01/29 07:20:08;;;;;;;89.15;50.78;;;4.60;81.30;;;;;;5029602;28;20421;-76
2022/01/29 07:22:34;;;;;;;83.65;48.95;;;4.60;80.80;;;;;;5007716;28;20048;-76
2022/01/29 07:25:00;;;;;;;86.55;50.42;;;4.60;81.20;;;;;;5026890;28;20041;-76
2022/01/29 07:27:26;;;;;;;87.25;52.25;;;4.50;81.10;;;;;;5024936;28;20425;-76
2022/01/29 07:29:51;;;;;;;89.90;52.63;;;4.60;81.00;;;;;;5025091;28;20156;-78
2022/01/29 07:32:17;;;;;;;92.05;53.22;;;4.50;81.40;;;;;;5026710;28;20377;-83
2022/01/29 07:35:02;;;;;;;83.28;50.78;;;4.50;81.00;;;;;;5026394;28;20037;-77
2022/01/29 07:37:29;;;;;;;84.97;49.42;;;4.50;81.00;;;;;;5029195;28;20444;-77
2022/01/29 07:39:55;;;;;;;77.88;47.47;;;4.50;81.30;;;;;;5028198;28;20038;-76
2022/01/29 07:42:21;;;;;;;80.53;47.03;;;4.60;81.40;;;;;;5020977;28;20037;-77
2022/01/29 07:44:47;;;;;;;85.07;50.05;;;4.60;80.80;;;;;;5026151;28;20087;-78
2022/01/29 07:47:12;;;;;;;88.40;50.80;;;4.50;80.30;;;;;;5024008;28;20084;-78
2022/01/29 07:49:39;;;;;;;80.22;49.50;;;4.50;80.60;;;;;;5023207;28;20504;-77
2022/01/29 07:52:05;;;;;;;85.43;49.78;;;4.40;80.70;;;;;;5023931;28;20064;-79
2022/01/29 07:54:31;;;;;;;88.75;52.08;;;4.40;81.20;;;;;;5023844;28;20116;-78
2022/01/29 07:56:56;;;;;;;77.63;44.78;;;4.50;81.10;;;;;;5021804;28;20504;-78
2022/01/29 07:59:22;;;;;;;62.17;37.90;;;4.50;81.00;;;;;;5026665;28;20505;-79
2022/01/29 08:01:47;;;;;;;85.95;50.13;;;4.70;80.20;;;;;;5024710;28;20052;-79
2022/01/29 08:04:13;;;;;;;81.03;46.78;;;4.70;80.10;;;;;;5023614;28;20565;-78
2022/01/29 08:06:39;;;;;;;77.93;45.92;;;4.80;80.10;;;;;;5023318;28;20436;-79
2022/01/29 08:09:04;;;;;;;83.65;49.13;;;4.80;79.60;;;;;;5024994;28;20397;-79
2022/01/29 08:11:30;;;;;;;80.10;45.95;;;4.80;79.80;;;;;;5024707;28;20393;-79
2022/01/29 08:13:56;;;;;;;97.63;56.75;;;4.90;79.80;;;;;;5023332;28;20061;-78
2022/01/29 08:16:21;;;;;;;95.40;55.58;;;4.80;77.90;;;;;;5024155;28;20370;-78
2022/01/29 08:18:47;;;;;;;88.10;53.30;;;4.70;78.10;;;;;;5031998;28;20084;-78
2022/01/29 08:21:14;;;;;;;81.47;50.50;;;4.60;78.60;;;;;;5032436;28;20075;-78
2022/01/29 08:23:41;;;;;;;83.55;48.92;;;4.50;79.30;;;;;;5028369;28;20037;-78
2022/01/29 08:26:07;;;;;;;91.25;51.92;;;4.60;78.60;;;;;;5033120;28;20102;-79
2022/01/29 08:28:32;;;;;;;78.88;45.38;;;4.60;78.50;;;;;;5032372;28;20038;-79
2022/01/29 08:30:58;;;;;;;74.95;44.08;;;4.70;78.90;;;;;;5030475;28;20033;-79
2022/01/29 08:33:24;;;;;;;73.20;42.55;;;4.70;77.70;;;;;;5027751;28;20055;-79
2022/01/29 08:35:50;;;;;;;84.38;50.65;;;4.70;76.70;;;;;;5026394;28;20038;-78
2022/01/29 08:38:15;;;;;;;78.18;46.45;;;4.70;74.50;;;;;;5025025;28;20773;-80
2022/01/29 08:40:41;;;;;;;78.75;45.00;;;4.60;75.40;;;;;;5029443;28;20036;-78
2022/01/29 08:43:08;;;;;;;70.07;41.63;;;4.70;75.30;;;;;;5029928;28;20037;-78
2022/01/29 08:45:34;;;;;;;75.00;45.45;;;4.90;75.90;;;;;;5013198;28;20124;-78
2022/01/29 08:47:59;;;;;;;85.63;49.92;;;5.00;74.50;;;;;;5029488;28;20611;-79
2022/01/29 08:50:25;;;;;;;83.28;47.05;;;4.90;73.70;;;;;;5026358;28;20037;-78
2022/01/29 08:52:51;;;;;;;79.13;45.38;;;4.90;75.00;;;;;;5031449;28;20036;-77
2022/01/29 08:55:36;;;;;;;80.63;47.72;;;4.90;74.30;;;;;;5031303;28;20112;-77
2022/01/29 08:58:05;;;;;;;81.50;46.33;;;5.10;73.50;;;;;;5011883;28;20124;-78
2022/01/29 09:00:31;;;;;;;75.18;44.88;;;5.20;73.80;;;;;;5014310;28;20041;-78
2022/01/29 09:02:56;;;;;;;81.88;48.25;;;5.20;73.80;;;;;;5024662;28;20406;-78
2022/01/29 09:05:22;;;;;;;72.78;45.63;;;5.20;73.30;;;;;;5024317;28;20038;-78
2022/01/29 09:07:48;;;;;;;62.53;36.22;;;5.30;73.80;;;;;;5015741;28;20470;-78
2022/01/29 09:10:14;;;;;;;71.97;43.58;;;5.50;74.20;;;;;;5031882;28;20041;-78
2022/01/29 09:12:40;;;;;;;68.65;43.72;;;5.60;73.60;;;;;;5031971;28;20037;-77
2022/01/29 09:15:06;;;;;;;75.78;46.45;;;5.80;73.40;;;;;;5029050;28;20068;-78
2022/01/29 09:17:32;;;;;;;73.28;42.22;;;5.70;72.60;;;;;;5032657;28;20072;-77
2022/01/29 09:19:58;;;;;;;77.68;44.67;;;5.70;73.60;;;;;;5030862;28;20068;-77
2022/01/29 09:22:23;;;;;;;81.55;51.80;;;5.80;73.10;;;;;;5030417;28;20136;-77
2022/01/29 09:24:49;;;;;;;73.38;45.25;;;5.80;73.60;;;;;;5031317;28;20096;-77
2022/01/29 09:27:15;;;;;;;79.95;50.53;;;5.80;73.80;;;;;;5031388;28;20037;-76
2022/01/29 09:29:40;;;;;;;62.55;39.97;;;6.00;73.00;;;;;;5014782;28;20130;-76
2022/01/29 09:32:07;;;;;;;64.07;40.65;;;6.10;72.90;;;;;;5030904;28;20029;-76
2022/01/29 09:34:32;;;;;;;55.30;34.83;;;6.20;72.50;;;;;;5030116;28;20042;-76
2022/01/29 09:36:58;;;;;;;59.60;34.50;;;6.40;71.80;;;;;;5030342;28;20037;-76
2022/01/29 09:39:23;;;;;;;55.05;36.83;;;6.50;71.20;;;;;;5017135;28;20051;-76
2022/01/29 09:41:50;;;;;;;78.70;44.97;;;6.70;70.80;;;;;;5034187;28;20120;-76
2022/01/29 09:44:15;;;;;;;69.00;42.55;;;6.80;69.10;;;;;;5032738;28;20045;-76
2022/01/29 09:46:44;;;;;;;65.22;41.28;;;6.70;69.10;;;;;;5015027;28;20444;-77
2022/01/29 09:49:11;;;;;;;55.75;35.83;;;6.70;69.10;;;;;;5032287;28;20474;-77
2022/01/29 09:51:38;;;;;;;50.88;31.30;;;6.80;69.00;;;;;;5014689;28;20148;-77
2022/01/29 09:54:04;;;;;;;44.75;27.98;;;7.10;68.90;;;;;;5024881;28;20045;-77
2022/01/29 09:56:31;;;;;;;50.20;30.77;;;7.50;68.80;;;;;;5005659;28;20038;-77
2022/01/29 09:58:57;;;;;;;62.35;38.58;;;7.70;67.00;;;;;;5028228;28;20046;-77
2022/01/29 10:01:23;;;;;;;58.25;38.15;;;7.90;65.70;;;;;;5033173;28;20040;-77
2022/01/29 10:04:03;;;;;;;51.78;31.63;;;8.00;65.60;;;;;;5035093;28;20042;-77
2022/01/29 10:06:29;;;;;;;;;;;8.10;66.70;;;;;;5015351;28;20053;-77
2022/01/29 10:08:55;;;;;;;44.25;27.60;;;8.30;64.30;;;;;;5033681;28;19913;-76
2022/01/29 10:11:26;;;;;;;39.15;26.77;;;8.60;66.50;;;;;;5032394;28;20663;-77
2022/01/29 10:13:57;;;;;;;39.72;25.88;;;8.90;67.80;;;;;;5025708;28;20030;-79
2022/01/29 10:16:26;;;;;;;42.67;27.50;;;9.30;70.20;;;;;;5024729;28;20045;-79
2022/01/29 10:19:12;;;;;;;41.63;26.90;;;9.60;69.20;;;;;;5031440;28;20091;-79
2022/01/29 10:21:47;;;;;;;56.15;37.00;;;10.00;67.50;;;;;;5033342;28;20042;-79
2022/01/29 10:24:15;;;;;;;66.85;42.58;;;10.00;60.50;;;;;;5034155;28;20103;-78
2022/01/29 10:26:46;;;;;;;54.28;35.90;;;9.90;60.20;;;;;;5034803;28;20420;-79
2022/01/29 10:29:24;;;;;;;45.88;31.65;;;10.00;62.20;;;;;;5034515;28;20073;-77
2022/01/29 10:31:59;;;;;;;45.45;29.95;;;10.20;64.20;;;;;;5016866;28;20431;-77
2022/01/29 10:34:31;;;;;;;42.40;29.83;;;10.50;64.10;;;;;;5035041;28;20064;-78
2022/01/29 10:37:16;;;;;;;48.08;30.92;;;10.80;64.30;;;;;;5009149;28;20060;-78
2022/01/29 10:39:44;;;;;;;45.00;30.40;;;11.20;64.30;;;;;;5030214;28;20076;-78
2022/01/29 10:42:14;;;;;;;56.10;34.97;;;11.40;66.20;;;;;;5006065;28;20115;-78
2022/01/29 10:44:45;;;;;;;44.53;31.05;;;11.70;61.70;;;;;;5034222;28;20029;-76
2022/01/29 10:47:11;;;;;;;44.05;29.45;;;11.90;65.30;;;;;;5028214;28;20348;-76
2022/01/29 10:49:44;;;;;;;46.97;31.38;;;12.10;66.60;;;;;;5011967;28;20113;-76
2022/01/29 10:52:12;;;;;;;46.88;32.58;;;12.30;64.40;;;;;;5032161;28;20026;-76
2022/01/29 10:54:43;;;;;;;51.17;33.88;;;12.50;63.80;;;;;;5034501;28;20099;-77
2022/01/29 10:57:13;;;;;;;52.50;36.20;;;12.70;60.80;;;;;;5031796;28;20393;-77
2022/01/29 10:59:53;;;;;;;51.78;33.53;;;12.90;59.80;;;;;;5034347;28;20045;-77
2022/01/29 11:02:21;;;;;;;50.10;34.75;;;13.10;60.50;;;;;;5033023;28;20058;-77
2022/01/29 11:04:48;;;;;;;59.13;38.50;;;13.20;59.00;;;;;;5033413;28;20044;-76
2022/01/29 11:07:19;;;;;;;58.30;38.17;;;13.30;54.10;;;;;;5015811;28;20068;-79
2022/01/29 11:09:48;;;;;;;56.53;37.75;;;13.40;57.00;;;;;;5016284;28;20038;-75
2022/01/29 11:12:18;;;;;;;55.47;35.92;;;13.50;58.00;;;;;;5015094;28;20470;-76
2022/01/29 11:14:45;;;;;;;60.17;38.47;;;13.60;57.30;;;;;;5030749;28;20036;-76
2022/01/29 11:17:12;;;;;;;62.35;38.70;;;13.70;56.50;;;;;;5031175;28;20086;-75
2022/01/29 11:19:40;;;;;;;59.15;39.00;;;13.90;55.50;;;;;;5031648;28;20132;-75
2022/01/29 11:22:07;;;;;;;60.60;37.88;;;14.00;55.60;;;;;;5015242;28;20034;-76
2022/01/29 11:24:36;;;;;;;61.95;38.40;;;14.20;55.30;;;;;;5033333;28;20064;-76
2022/01/29 11:27:03;;;;;;;57.00;36.35;;;14.30;54.40;;;;;;5028874;28;20076;-76
2022/01/29 11:29:34;;;;;;;56.33;33.20;;;14.50;54.00;;;;;;5028838;28;20342;-76
2022/01/29 11:32:20;;;;;;;61.42;39.10;;;14.60;55.50;;;;;;5026191;28;20029;-76
2022/01/29 11:35:08;;;;;;;53.30;34.25;;;14.70;52.00;;;;;;5014761;28;20103;-76
2022/01/29 11:37:36;;;;;;;55.08;32.75;;;14.70;54.50;;;;;;5027443;28;20029;-76
2022/01/29 11:40:33;;;;;;;54.85;33.63;;;14.80;54.00;;;;;;5013235;28;20041;-74
2022/01/29 11:43:18;;;;;;;60.88;36.97;;;15.10;50.90;;;;;;5029991;28;20043;-75
2022/01/29 11:46:11;;;;;;;55.05;36.58;;;15.10;49.70;;;;;;5019394;28;20045;-75
2022/01/29 11:48:51;;;;;;;60.28;39.05;;;15.10;52.10;;;;;;5008482;28;20045;-75
2022/01/29 11:51:40;;;;;;;53.95;34.17;;;15.30;52.30;;;;;;5026947;28;20049;-75
2022/01/29 11:54:07;;;;;;;53.60;34.05;;;15.60;51.40;;;;;;5030690;28;20393;-75
2022/01/29 11:56:38;;;;;;;60.83;33.88;;;16.00;51.90;;;;;;5029409;28;20517;-75
2022/01/29 11:59:19;;;;;;;58.30;35.90;;;16.40;52.70;;;;;;5027457;28;20123;-75
2022/01/29 12:01:52;;;;;;;48.70;33.20;;;16.90;50.00;;;;;;5026455;28;20053;-75
2022/01/29 12:04:19;;;;;;;53.20;33.83;;;17.40;48.20;;;;;;5026315;28;20053;-75
2022/01/29 12:07:07;;;;;;;47.53;30.58;;;17.90;44.20;;;;;;5032239;28;20621;-75
2022/01/29 12:09:52;;;;;;;47.92;31.55;;;18.40;41.30;;;;;;5031467;28;20041;-76
2022/01/29 12:12:27;;;;;;;46.33;30.35;;;18.80;42.00;;;;;;5032507;28;20030;-76
2022/01/29 12:14:57;;;;;;;49.55;32.92;;;18.90;42.50;;;;;;5027176;28;20554;-76
2022/01/29 12:17:47;;;;;;;48.25;34.63;;;19.30;39.80;;;;;;5020410;28;20033;-76
2022/01/29 12:20:24;;;;;;;52.70;35.22;;;19.60;39.00;;;;;;5023355;28;20044;-76
2022/01/29 12:22:52;;;;;;;57.50;39.03;;;19.90;38.30;;;;;;5029168;28;20136;-76
2022/01/29 12:25:20;;;;;;;49.05;35.40;;;20.00;38.10;;;;;;5029889;28;20051;-76
2022/01/29 12:27:55;;;;;;;50.58;34.88;;;20.30;37.20;;;;;;5026801;28;20089;-76
2022/01/29 12:30:22;;;;;;;56.15;38.60;;;20.40;38.20;;;;;;5029067;28;20040;-76
2022/01/29 12:32:58;;;;;;;54.85;36.38;;;20.40;37.20;;;;;;5024422;28;20525;-75
2022/01/29 12:35:58;;;;;;;54.17;37.50;;;20.60;37.50;;;;;;5028432;28;20481;-76
2022/01/29 12:38:27;;;;;;;53.17;38.07;;;20.50;36.30;;;;;;5027673;28;20041;-74
2022/01/29 12:41:00;;;;;;;59.13;40.47;;;20.50;36.90;;;;;;5025996;28;20275;-75
2022/01/29 12:43:29;;;;;;;80.15;41.38;;;20.00;38.40;;;;;;5010782;28;20086;-75
2022/01/29 12:46:11;;;;;;;71.45;40.85;;;19.70;38.20;;;;;;5028168;28;20125;-75
2022/01/29 12:48:38;;;;;;;62.72;38.35;;;19.40;37.60;;;;;;5028951;28;20445;-75
2022/01/29 12:51:06;;;;;;;51.40;32.58;;;19.40;39.10;;;;;;5028405;28;20037;-75
2022/01/29 12:53:32;;;;;;;54.47;34.13;;;19.60;40.00;;;;;;5020484;28;20034;-75